sensor_id;sensor_type;location;lat;lon;timestamp;pressure;altitude;pressure_sealevel;temperature;humidity
56668;BME280;42542;48.360;10.958;2022-12-07T00:01:47;96081.38;;;2.82;95.80
56668;BME280;42542;48.360;10.958;2022-12-07T00:04:49;96083.16;;;2.82;95.79
56668;BME280;42542;48.360;10.958;2022-12-07T00:07:50;96071.75;;;2.81;96.32
56668;BME280;42542;48.360;10.958;2022-12-07T00:10:52;96070.97;;;2.81;96.11
56668;BME280;42542;48.360;10.958;2022-12-07T00:14:00;96072.88;;;2.79;95.79
56668;BME280;42542;48.360;10.958;2022-12-07T00:17:02;96073.81;;;2.78;95.64
56668;BME280;42542;48.360;10.958;2022-12-07T00:20:04;96078.97;;;2.79;95.94
56668;BME280;42542;48.360;10.958;2022-12-07T00:23:06;96078.03;;;2.80;95.94
56668;BME280;42542;48.360;10.958;2022-12-07T00:26:22;96076.34;;;2.79;95.56
56668;BME280;42542;48.360;10.958;2022-12-07T00:29:24;96069.28;;;2.80;95.81
56668;BME280;42542;48.360;10.958;2022-12-07T00:32:26;96068.31;;;2.81;95.43
56668;BME280;42542;48.360;10.958;2022-12-07T00:35:28;96062.06;;;2.82;95.94
56668;BME280;42542;48.360;10.958;2022-12-07T00:38:31;96065.78;;;2.79;95.72
56668;BME280;42542;48.360;10.958;2022-12-07T00:41:33;96065.69;;;2.81;95.76
56668;BME280;42542;48.360;10.958;2022-12-07T00:44:35;96072.03;;;2.78;94.97
56668;BME280;42542;48.360;10.958;2022-12-07T00:47:36;96064.09;;;2.78;95.78
56668;BME280;42542;48.360;10.958;2022-12-07T00:50:38;96068.53;;;2.78;95.60
56668;BME280;42542;48.360;10.958;2022-12-07T00:53:39;96065.16;;;2.75;95.40
56668;BME280;42542;48.360;10.958;2022-12-07T00:56:42;96060.72;;;2.76;94.61
56668;BME280;42542;48.360;10.958;2022-12-07T00:59:44;96072.25;;;2.75;94.79
56668;BME280;42542;48.360;10.958;2022-12-07T01:02:45;96061.69;;;2.75;95.77
56668;BME280;42542;48.360;10.958;2022-12-07T01:05:52;96066.00;;;2.76;95.17
56668;BME280;42542;48.360;10.958;2022-12-07T01:08:54;96064.31;;;2.75;95.45
56668;BME280;42542;48.360;10.958;2022-12-07T01:11:56;96068.66;;;2.76;95.48
56668;BME280;42542;48.360;10.958;2022-12-07T01:14:57;96069.00;;;2.71;95.12
56668;BME280;42542;48.360;10.958;2022-12-07T01:17:59;96067.22;;;2.72;95.60
56668;BME280;42542;48.360;10.958;2022-12-07T01:21:15;96071.66;;;2.71;95.19
56668;BME280;42542;48.360;10.958;2022-12-07T01:24:17;96070.81;;;2.71;94.84
56668;BME280;42542;48.360;10.958;2022-12-07T01:27:19;96069.00;;;2.71;95.36
56668;BME280;42542;48.360;10.958;2022-12-07T01:30:21;96063.25;;;2.66;95.39
56668;BME280;42542;48.360;10.958;2022-12-07T01:33:22;96073.44;;;2.71;96.13
56668;BME280;42542;48.360;10.958;2022-12-07T01:36:26;96072.59;;;2.70;95.87
56668;BME280;42542;48.360;10.958;2022-12-07T01:39:28;96071.88;;;2.68;95.71
56668;BME280;42542;48.360;10.958;2022-12-07T01:42:29;96079.78;;;2.68;95.73
56668;BME280;42542;48.360;10.958;2022-12-07T01:45:40;96077.41;;;2.65;95.01
56668;BME280;42542;48.360;10.958;2022-12-07T01:48:42;96071.19;;;2.66;95.67
56668;BME280;42542;48.360;10.958;2022-12-07T01:51:46;96074.50;;;2.68;95.39
56668;BME280;42542;48.360;10.958;2022-12-07T01:54:51;96063.25;;;2.66;95.58
56668;BME280;42542;48.360;10.958;2022-12-07T01:57:55;96058.94;;;2.65;95.52
56668;BME280;42542;48.360;10.958;2022-12-07T02:00:57;96059.78;;;2.66;95.33
56668;BME280;42542;48.360;10.958;2022-12-07T02:03:58;96056.41;;;2.64;94.92
56668;BME280;42542;48.360;10.958;2022-12-07T02:07:00;96051.25;;;2.62;96.15
56668;BME280;42542;48.360;10.958;2022-12-07T02:13:25;96051.34;;;2.61;95.55
56668;BME280;42542;48.360;10.958;2022-12-07T02:20:49;96050.66;;;2.59;95.52
56668;BME280;42542;48.360;10.958;2022-12-07T02:23:31;96059.41;;;2.59;95.93
56668;BME280;42542;48.360;10.958;2022-12-07T02:27:01;96049.66;;;2.60;95.80
56668;BME280;42542;48.360;10.958;2022-12-07T02:30:12;96054.25;;;2.58;95.82
56668;BME280;42542;48.360;10.958;2022-12-07T02:33:18;96054.34;;;2.56;95.03
56668;BME280;42542;48.360;10.958;2022-12-07T02:36:30;96052.56;;;2.57;95.17
56668;BME280;42542;48.360;10.958;2022-12-07T02:39:41;96054.34;;;2.56;95.10
56668;BME280;42542;48.360;10.958;2022-12-07T02:42:48;96054.72;;;2.52;94.78
56668;BME280;42542;48.360;10.958;2022-12-07T02:45:56;96046.66;;;2.53;95.38
56668;BME280;42542;48.360;10.958;2022-12-07T02:48:59;96044.03;;;2.53;94.76
56668;BME280;42542;48.360;10.958;2022-12-07T02:52:02;96042.34;;;2.52;95.23
56668;BME280;42542;48.360;10.958;2022-12-07T02:55:04;96043.19;;;2.53;95.16
56668;BME280;42542;48.360;10.958;2022-12-07T03:01:18;96044.16;;;2.52;95.43
56668;BME280;42542;48.360;10.958;2022-12-07T03:08:01;96044.28;;;2.50;95.59
56668;BME280;42542;48.360;10.958;2022-12-07T03:11:10;96046.06;;;2.50;94.89
56668;BME280;42542;48.360;10.958;2022-12-07T03:14:21;96048.72;;;2.50;95.42
56668;BME280;42542;48.360;10.958;2022-12-07T03:17:28;96039.09;;;2.49;95.33
56668;BME280;42542;48.360;10.958;2022-12-07T03:20:32;96039.84;;;2.51;95.81
56668;BME280;42542;48.360;10.958;2022-12-07T03:23:38;96038.88;;;2.52;95.63
56668;BME280;42542;48.360;10.958;2022-12-07T03:26:46;96044.16;;;2.52;95.43
56668;BME280;42542;48.360;10.958;2022-12-07T03:29:56;96043.31;;;2.51;95.58
56668;BME280;42542;48.360;10.958;2022-12-07T03:33:09;96046.66;;;2.53;95.69
56668;BME280;42542;48.360;10.958;2022-12-07T03:36:19;96037.91;;;2.53;95.37
56668;BME280;42542;48.360;10.958;2022-12-07T03:39:44;96040.53;;;2.53;95.13
56668;BME280;42542;48.360;10.958;2022-12-07T03:42:51;96037.91;;;2.53;95.81
56668;BME280;42542;48.360;10.958;2022-12-07T03:52:32;96032.63;;;2.53;95.96
56668;BME280;42542;48.360;10.958;2022-12-07T03:55:39;96037.06;;;2.52;96.25
56668;BME280;42542;48.360;10.958;2022-12-07T03:58:42;96043.31;;;2.51;96.36
56668;BME280;42542;48.360;10.958;2022-12-07T04:01:51;96047.75;;;2.51;96.40
56668;BME280;42542;48.360;10.958;2022-12-07T04:04:55;96042.59;;;2.49;96.64
56668;BME280;42542;48.360;10.958;2022-12-07T04:07:57;96038.25;;;2.48;96.50
56668;BME280;42542;48.360;10.958;2022-12-07T04:10:59;96041.25;;;2.44;96.45
56668;BME280;42542;48.360;10.958;2022-12-07T04:14:00;96040.44;;;2.43;96.37
56668;BME280;42542;48.360;10.958;2022-12-07T04:17:20;96040.44;;;2.43;96.15
56668;BME280;42542;48.360;10.958;2022-12-07T04:20:21;96032.63;;;2.42;96.75
56668;BME280;42542;48.360;10.958;2022-12-07T04:23:23;96042.31;;;2.41;96.71
56668;BME280;42542;48.360;10.958;2022-12-07T04:26:25;96034.53;;;2.40;96.36
56668;BME280;42542;48.360;10.958;2022-12-07T04:29:26;96039.81;;;2.40;97.07
56668;BME280;42542;48.360;10.958;2022-12-07T04:32:28;96029.50;;;2.37;96.67
56668;BME280;42542;48.360;10.958;2022-12-07T04:35:29;96034.63;;;2.38;96.90
56668;BME280;42542;48.360;10.958;2022-12-07T04:38:31;96038.25;;;2.37;97.29
56668;BME280;42542;48.360;10.958;2022-12-07T04:41:33;96030.44;;;2.35;97.49
56668;BME280;42542;48.360;10.958;2022-12-07T04:44:35;96036.56;;;2.36;96.94
56668;BME280;42542;48.360;10.958;2022-12-07T04:47:36;96033.19;;;2.34;96.93
56668;BME280;42542;48.360;10.958;2022-12-07T04:50:38;96037.53;;;2.35;97.34
56668;BME280;42542;48.360;10.958;2022-12-07T04:53:47;96035.84;;;2.34;96.99
56668;BME280;42542;48.360;10.958;2022-12-07T04:56:48;96031.50;;;2.33;97.23
56668;BME280;42542;48.360;10.958;2022-12-07T04:59:50;96039.44;;;2.33;97.76
56668;BME280;42542;48.360;10.958;2022-12-07T05:02:51;96040.53;;;2.30;97.30
56668;BME280;42542;48.360;10.958;2022-12-07T05:05:53;96034.16;;;2.33;97.48
56668;BME280;42542;48.360;10.958;2022-12-07T05:08:55;96038.59;;;2.32;97.75
56668;BME280;42542;48.360;10.958;2022-12-07T05:11:56;96035.09;;;2.32;97.02
56668;BME280;42542;48.360;10.958;2022-12-07T05:14:58;96014.72;;;2.23;97.34
56668;BME280;42542;48.360;10.958;2022-12-07T05:17:59;96010.25;;;2.23;97.17
56668;BME280;42542;48.360;10.958;2022-12-07T05:21:01;96029.13;;;2.30;97.51
56668;BME280;42542;48.360;10.958;2022-12-07T05:24:03;96022.06;;;2.30;97.70
56668;BME280;42542;48.360;10.958;2022-12-07T05:27:05;96022.16;;;2.29;97.68
56668;BME280;42542;48.360;10.958;2022-12-07T05:30:07;96016.91;;;2.29;97.71
56668;BME280;42542;48.360;10.958;2022-12-07T05:33:09;96015.09;;;2.29;97.58
56668;BME280;42542;48.360;10.958;2022-12-07T05:36:10;96024.81;;;2.29;98.49
56668;BME280;42542;48.360;10.958;2022-12-07T05:39:12;96019.28;;;2.21;98.34
56668;BME280;42542;48.360;10.958;2022-12-07T05:42:13;96027.56;;;2.27;98.35
56668;BME280;42542;48.360;10.958;2022-12-07T05:45:15;96025.13;;;2.24;98.28
56668;BME280;42542;48.360;10.958;2022-12-07T05:48:17;96024.66;;;2.19;97.98
56668;BME280;42542;48.360;10.958;2022-12-07T05:51:19;96030.66;;;2.21;98.51
56668;BME280;42542;48.360;10.958;2022-12-07T05:54:20;96024.53;;;2.21;97.99
56668;BME280;42542;48.360;10.958;2022-12-07T05:57:22;96026.34;;;2.20;98.75
56668;BME280;42542;48.360;10.958;2022-12-07T06:00:23;96024.75;;;2.18;98.67
56668;BME280;42542;48.360;10.958;2022-12-07T06:03:25;96030.38;;;2.13;97.94
56668;BME280;42542;48.360;10.958;2022-12-07T06:06:27;96027.66;;;2.15;98.35
56668;BME280;42542;48.360;10.958;2022-12-07T06:09:29;96037.56;;;2.11;98.45
56668;BME280;42542;48.360;10.958;2022-12-07T06:12:31;96040.09;;;2.13;98.25
56668;BME280;42542;48.360;10.958;2022-12-07T06:15:36;96040.19;;;2.11;98.57
56668;BME280;42542;48.360;10.958;2022-12-07T06:18:38;96033.38;;;2.09;99.21
56668;BME280;42542;48.360;10.958;2022-12-07T06:21:39;96036.13;;;2.07;98.83
56668;BME280;42542;48.360;10.958;2022-12-07T06:24:42;96030.00;;;2.07;98.66
56668;BME280;42542;48.360;10.958;2022-12-07T06:27:43;96040.78;;;2.04;98.99
56668;BME280;42542;48.360;10.958;2022-12-07T06:30:45;96028.91;;;1.98;99.21
56668;BME280;42542;48.360;10.958;2022-12-07T06:33:46;96033.22;;;1.99;99.05
56668;BME280;42542;48.360;10.958;2022-12-07T06:36:49;96042.06;;;1.98;99.06
56668;BME280;42542;48.360;10.958;2022-12-07T06:39:53;96037.88;;;1.95;99.24
56668;BME280;42542;48.360;10.958;2022-12-07T06:42:54;96043.28;;;1.94;99.08
56668;BME280;42542;48.360;10.958;2022-12-07T06:45:56;96049.38;;;1.94;99.01
56668;BME280;42542;48.360;10.958;2022-12-07T06:48:58;96046.84;;;1.93;99.27
56668;BME280;42542;48.360;10.958;2022-12-07T06:51:59;96041.22;;;1.86;99.32
56668;BME280;42542;48.360;10.958;2022-12-07T06:55:01;96044.44;;;1.90;99.05
56668;BME280;42542;48.360;10.958;2022-12-07T06:58:02;96044.78;;;1.85;99.30
56668;BME280;42542;48.360;10.958;2022-12-07T07:01:12;96041.53;;;1.82;99.04
56668;BME280;42542;48.360;10.958;2022-12-07T07:04:14;96038.50;;;1.75;99.26
56668;BME280;42542;48.360;10.958;2022-12-07T07:07:16;96039.25;;;1.77;99.44
56668;BME280;42542;48.360;10.958;2022-12-07T07:10:17;96039.34;;;1.76;99.21
56668;BME280;42542;48.360;10.958;2022-12-07T07:13:19;96038.00;;;1.70;99.21
56668;BME280;42542;48.360;10.958;2022-12-07T07:16:21;96037.28;;;1.68;100.00
56668;BME280;42542;48.360;10.958;2022-12-07T07:19:22;96031.16;;;1.68;99.91
56668;BME280;42542;48.360;10.958;2022-12-07T07:22:24;96034.88;;;1.65;100.00
56668;BME280;42542;48.360;10.958;2022-12-07T07:25:25;96034.97;;;1.64;100.00
56668;BME280;42542;48.360;10.958;2022-12-07T07:28:27;96035.09;;;1.62;99.97
56668;BME280;42542;48.360;10.958;2022-12-07T07:31:29;96038.78;;;1.60;99.73
56668;BME280;42542;48.360;10.958;2022-12-07T07:34:31;96040.56;;;1.59;99.80
56668;BME280;42542;48.360;10.958;2022-12-07T07:37:33;96034.47;;;1.58;100.00
56668;BME280;42542;48.360;10.958;2022-12-07T07:40:34;96025.75;;;1.58;100.00
56668;BME280;42542;48.360;10.958;2022-12-07T07:43:36;96035.53;;;1.56;100.00
56668;BME280;42542;48.360;10.958;2022-12-07T07:46:38;96040.56;;;1.59;100.00
56668;BME280;42542;48.360;10.958;2022-12-07T07:49:39;96051.09;;;1.59;99.89
56668;BME280;42542;48.360;10.958;2022-12-07T07:52:48;96060.81;;;1.58;100.00
56668;BME280;42542;48.360;10.958;2022-12-07T07:55:53;96062.47;;;1.60;99.91
56668;BME280;42542;48.360;10.958;2022-12-07T07:58:55;96059.75;;;1.61;100.00
56668;BME280;42542;48.360;10.958;2022-12-07T08:01:57;96059.66;;;1.63;100.00
56668;BME280;42542;48.360;10.958;2022-12-07T08:04:58;96046.47;;;1.63;100.00
56668;BME280;42542;48.360;10.958;2022-12-07T08:08:00;96053.44;;;1.64;100.00
56668;BME280;42542;48.360;10.958;2022-12-07T08:11:08;96059.53;;;1.64;100.00
56668;BME280;42542;48.360;10.958;2022-12-07T08:14:10;96064.91;;;1.63;100.00
56668;BME280;42542;48.360;10.958;2022-12-07T08:17:12;96061.31;;;1.64;100.00
56668;BME280;42542;48.360;10.958;2022-12-07T08:20:13;96054.81;;;1.56;99.87
56668;BME280;42542;48.360;10.958;2022-12-07T08:23:15;96058.06;;;1.60;99.78
56668;BME280;42542;48.360;10.958;2022-12-07T08:26:17;96078.19;;;1.61;100.00
56668;BME280;42542;48.360;10.958;2022-12-07T08:29:19;96082.50;;;1.62;100.00
56668;BME280;42542;48.360;10.958;2022-12-07T08:32:20;96083.25;;;1.64;100.00
56668;BME280;42542;48.360;10.958;2022-12-07T08:35:22;96085.03;;;1.64;100.00
56668;BME280;42542;48.360;10.958;2022-12-07T08:38:24;96084.78;;;1.67;100.00
56668;BME280;42542;48.360;10.958;2022-12-07T08:41:32;96081.22;;;1.68;99.72
56668;BME280;42542;48.360;10.958;2022-12-07T08:44:34;96071.53;;;1.68;100.00
56668;BME280;42542;48.360;10.958;2022-12-07T08:47:42;96075.84;;;1.69;99.48
56668;BME280;42542;48.360;10.958;2022-12-07T08:50:46;96080.28;;;1.69;99.76
56668;BME280;42542;48.360;10.958;2022-12-07T08:53:51;96074.16;;;1.68;99.87
56668;BME280;42542;48.360;10.958;2022-12-07T08:56:54;96077.75;;;1.67;99.48
56668;BME280;42542;48.360;10.958;2022-12-07T09:00:00;96077.75;;;1.67;99.52
56668;BME280;42542;48.360;10.958;2022-12-07T09:03:02;96079.66;;;1.65;98.94
56668;BME280;42542;48.360;10.958;2022-12-07T09:06:04;96085.53;;;1.69;99.17
56668;BME280;42542;48.360;10.958;2022-12-07T09:09:06;96087.22;;;1.70;99.04
56668;BME280;42542;48.360;10.958;2022-12-07T09:12:09;96091.53;;;1.71;99.13
56668;BME280;42542;48.360;10.958;2022-12-07T09:15:11;96086.88;;;1.74;98.49
56668;BME280;42542;48.360;10.958;2022-12-07T09:18:13;96083.19;;;1.77;97.94
56668;BME280;42542;48.360;10.958;2022-12-07T09:21:14;96087.16;;;1.82;97.69
56668;BME280;42542;48.360;10.958;2022-12-07T09:24:16;96087.91;;;1.84;96.96
56668;BME280;42542;48.360;10.958;2022-12-07T09:27:18;96090.09;;;1.90;96.40
56668;BME280;42542;48.360;10.958;2022-12-07T09:30:19;96080.28;;;1.92;95.95
56668;BME280;42542;48.360;10.958;2022-12-07T09:33:21;96089.53;;;1.98;95.02
56668;BME280;42542;48.360;10.958;2022-12-07T09:36:23;96088.47;;;2.01;93.82
56668;BME280;42542;48.360;10.958;2022-12-07T09:39:25;96081.91;;;2.06;94.20
56668;BME280;42542;48.360;10.958;2022-12-07T09:42:37;96085.13;;;2.10;93.35
56668;BME280;42542;48.360;10.958;2022-12-07T09:45:41;96080.13;;;2.18;92.18
56668;BME280;42542;48.360;10.958;2022-12-07T09:48:49;96063.84;;;2.24;92.43
56668;BME280;42542;48.360;10.958;2022-12-07T09:52:16;96063.41;;;2.30;91.69
56668;BME280;42542;48.360;10.958;2022-12-07T09:55:28;96060.91;;;2.40;91.49
56668;BME280;42542;48.360;10.958;2022-12-07T09:58:31;96057.78;;;2.46;90.50
56668;BME280;42542;48.360;10.958;2022-12-07T10:01:34;96052.06;;;2.52;90.02
56668;BME280;42542;48.360;10.958;2022-12-07T10:04:37;96062.63;;;2.63;90.30
56668;BME280;42542;48.360;10.958;2022-12-07T10:07:39;96057.50;;;2.72;90.25
56668;BME280;42542;48.360;10.958;2022-12-07T10:10:41;96048.16;;;2.80;88.89
56668;BME280;42542;48.360;10.958;2022-12-07T10:13:45;96042.97;;;2.89;89.14
56668;BME280;42542;48.360;10.958;2022-12-07T10:16:49;96049.72;;;3.04;89.79
56668;BME280;42542;48.360;10.958;2022-12-07T10:19:50;96035.06;;;3.11;88.45
56668;BME280;42542;48.360;10.958;2022-12-07T10:25:56;96045.50;;;3.35;89.19
56668;BME280;42542;48.360;10.958;2022-12-07T10:29:30;96036.69;;;3.46;88.43
56668;BME280;42542;48.360;10.958;2022-12-07T10:32:34;96033.44;;;3.53;88.82
56668;BME280;42542;48.360;10.958;2022-12-07T10:35:43;96031.84;;;3.62;86.88
56668;BME280;42542;48.360;10.958;2022-12-07T10:38:47;96034.72;;;3.70;87.26
56668;BME280;42542;48.360;10.958;2022-12-07T10:42:00;96032.19;;;3.80;87.23
56668;BME280;42542;48.360;10.958;2022-12-07T11:05:53;96021.19;;;3.96;78.95
56668;BME280;42542;48.360;10.958;2022-12-07T11:09:15;96014.22;;;3.95;77.44
56668;BME280;42542;48.360;10.958;2022-12-07T11:12:54;96011.59;;;3.83;74.82
56668;BME280;42542;48.360;10.958;2022-12-07T11:16:32;96015.22;;;3.82;76.39
56668;BME280;42542;48.360;10.958;2022-12-07T11:33:34;95987.28;;;3.89;77.47
56668;BME280;42542;48.360;10.958;2022-12-07T11:36:42;95979.38;;;3.89;77.07
56668;BME280;42542;48.360;10.958;2022-12-07T11:39:50;95980.94;;;3.92;77.98
56668;BME280;42542;48.360;10.958;2022-12-07T11:42:59;95977.19;;;3.95;77.19
56668;BME280;42542;48.360;10.958;2022-12-07T11:46:06;95969.50;;;3.91;75.89
56668;BME280;42542;48.360;10.958;2022-12-07T11:49:15;95972.88;;;3.93;75.46
56668;BME280;42542;48.360;10.958;2022-12-07T11:52:27;95975.41;;;3.95;75.62
56668;BME280;42542;48.360;10.958;2022-12-07T11:55:43;95971.91;;;3.95;75.60
56668;BME280;42542;48.360;10.958;2022-12-07T11:58:59;95967.72;;;3.92;76.18
56668;BME280;42542;48.360;10.958;2022-12-07T12:02:15;95967.72;;;3.92;75.59
56668;BME280;42542;48.360;10.958;2022-12-07T12:05:21;95964.09;;;3.93;76.71
56668;BME280;42542;48.360;10.958;2022-12-07T12:08:33;95955.94;;;3.96;75.20
56668;BME280;42542;48.360;10.958;2022-12-07T12:22:14;95949.66;;;3.97;74.91
56668;BME280;42542;48.360;10.958;2022-12-07T12:25:24;95945.34;;;3.96;74.25
56668;BME280;42542;48.360;10.958;2022-12-07T12:28:39;95942.72;;;3.96;73.86
56668;BME280;42542;48.360;10.958;2022-12-07T12:32:06;95943.41;;;3.98;74.05
56668;BME280;42542;48.360;10.958;2022-12-07T12:48:02;95932.78;;;4.09;74.53
56668;BME280;42542;48.360;10.958;2022-12-07T12:51:36;95942.38;;;4.10;73.30
56668;BME280;42542;48.360;10.958;2022-12-07T12:54:38;95934.44;;;4.10;71.89
56668;BME280;42542;48.360;10.958;2022-12-07T12:57:39;95945.41;;;4.06;71.47
56668;BME280;42542;48.360;10.958;2022-12-07T13:00:41;95934.50;;;3.99;70.84
56668;BME280;42542;48.360;10.958;2022-12-07T13:03:54;95929.94;;;4.01;70.61
56668;BME280;42542;48.360;10.958;2022-12-07T13:06:56;95929.66;;;4.04;72.39
56668;BME280;42542;48.360;10.958;2022-12-07T13:09:57;95927.16;;;4.03;72.14
56668;BME280;42542;48.360;10.958;2022-12-07T13:22:47;95917.97;;;4.07;72.50
56668;BME280;42542;48.360;10.958;2022-12-07T13:29:21;95910.28;;;4.04;71.59
56668;BME280;42542;48.360;10.958;2022-12-07T13:32:28;95913.78;;;4.04;71.48
56668;BME280;42542;48.360;10.958;2022-12-07T13:35:36;95912.13;;;4.03;71.23
56668;BME280;42542;48.360;10.958;2022-12-07T13:38:48;95899.88;;;4.02;71.43
56668;BME280;42542;48.360;10.958;2022-12-07T13:41:53;95898.19;;;4.01;70.89
56668;BME280;42542;48.360;10.958;2022-12-07T13:44:58;95911.97;;;4.05;70.63
56668;BME280;42542;48.360;10.958;2022-12-07T13:48:00;95897.06;;;4.04;70.46
56668;BME280;42542;48.360;10.958;2022-12-07T13:51:03;95902.25;;;4.05;71.29
56668;BME280;42542;48.360;10.958;2022-12-07T13:54:12;95905.72;;;4.06;70.55
56668;BME280;42542;48.360;10.958;2022-12-07T13:57:16;95900.56;;;4.04;70.52
56668;BME280;42542;48.360;10.958;2022-12-07T14:00:20;95903.78;;;4.08;70.15
56668;BME280;42542;48.360;10.958;2022-12-07T14:03:33;95902.13;;;4.07;70.13
56668;BME280;42542;48.360;10.958;2022-12-07T14:06:35;95898.75;;;4.05;69.02
56668;BME280;42542;48.360;10.958;2022-12-07T14:09:37;95901.56;;;4.03;69.44
56668;BME280;42542;48.360;10.958;2022-12-07T14:12:38;95896.38;;;4.02;69.56
56668;BME280;42542;48.360;10.958;2022-12-07T14:15:40;95899.03;;;4.02;69.08
56668;BME280;42542;48.360;10.958;2022-12-07T14:18:41;95901.94;;;3.99;69.51
56668;BME280;42542;48.360;10.958;2022-12-07T14:21:43;95902.75;;;3.99;69.33
56668;BME280;42542;48.360;10.958;2022-12-07T14:24:45;95899.56;;;3.96;69.63
56668;BME280;42542;48.360;10.958;2022-12-07T14:27:52;95897.59;;;3.98;70.08
56668;BME280;42542;48.360;10.958;2022-12-07T14:30:57;95897.47;;;3.99;69.81
56668;BME280;42542;48.360;10.958;2022-12-07T14:33:59;95891.47;;;3.97;70.01
56668;BME280;42542;48.360;10.958;2022-12-07T14:37:01;95892.47;;;3.96;70.41
56668;BME280;42542;48.360;10.958;2022-12-07T14:40:04;95896.06;;;3.95;69.77
56668;BME280;42542;48.360;10.958;2022-12-07T14:43:11;95892.59;;;3.95;70.19
56668;BME280;42542;48.360;10.958;2022-12-07T14:46:14;95890.78;;;3.95;70.86
56668;BME280;42542;48.360;10.958;2022-12-07T14:49:16;95898.00;;;3.93;70.11
56668;BME280;42542;48.360;10.958;2022-12-07T14:52:33;95893.56;;;3.93;69.65
56668;BME280;42542;48.360;10.958;2022-12-07T14:55:55;95896.19;;;3.93;69.74
56668;BME280;42542;48.360;10.958;2022-12-07T14:58:57;95892.00;;;3.91;69.66
56668;BME280;42542;48.360;10.958;2022-12-07T15:01:58;95894.91;;;3.88;69.49
56668;BME280;42542;48.360;10.958;2022-12-07T15:05:00;95894.06;;;3.87;69.71
56668;BME280;42542;48.360;10.958;2022-12-07T15:08:03;95890.72;;;3.85;69.84
56668;BME280;42542;48.360;10.958;2022-12-07T15:11:04;95893.34;;;3.85;70.11
56668;BME280;42542;48.360;10.958;2022-12-07T15:14:07;95890.72;;;3.85;70.38
56668;BME280;42542;48.360;10.958;2022-12-07T15:17:13;95891.56;;;3.86;71.07
56668;BME280;42542;48.360;10.958;2022-12-07T15:20:30;95888.19;;;3.84;70.63
56668;BME280;42542;48.360;10.958;2022-12-07T15:23:32;95890.84;;;3.84;71.63
56668;BME280;42542;48.360;10.958;2022-12-07T15:26:33;95896.25;;;3.82;72.55
56668;BME280;42542;48.360;10.958;2022-12-07T15:29:36;95898.88;;;3.82;73.18
56668;BME280;42542;48.360;10.958;2022-12-07T15:32:38;95881.75;;;3.77;72.83
56668;BME280;42542;48.360;10.958;2022-12-07T15:35:40;95891.47;;;3.76;73.01
56668;BME280;42542;48.360;10.958;2022-12-07T15:38:42;95892.59;;;3.74;73.60
56668;BME280;42542;48.360;10.958;2022-12-07T15:42:04;95893.78;;;3.70;74.46
56668;BME280;42542;48.360;10.958;2022-12-07T15:45:07;95893.22;;;3.66;74.78
56668;BME280;42542;48.360;10.958;2022-12-07T15:48:09;95896.22;;;3.62;73.63
56668;BME280;42542;48.360;10.958;2022-12-07T15:51:30;95890.38;;;3.58;73.91
56668;BME280;42542;48.360;10.958;2022-12-07T15:54:32;95896.75;;;3.56;75.12
56668;BME280;42542;48.360;10.958;2022-12-07T15:57:36;95882.38;;;3.48;75.97
56668;BME280;42542;48.360;10.958;2022-12-07T16:00:38;95884.28;;;3.46;76.37
56668;BME280;42542;48.360;10.958;2022-12-07T16:03:40;95880.47;;;3.39;76.50
56668;BME280;42542;48.360;10.958;2022-12-07T16:06:41;95885.31;;;3.34;76.89
56668;BME280;42542;48.360;10.958;2022-12-07T16:09:43;95883.91;;;3.30;76.81
56668;BME280;42542;48.360;10.958;2022-12-07T16:12:45;95886.91;;;3.26;77.31
56668;BME280;42542;48.360;10.958;2022-12-07T16:15:46;95885.59;;;3.20;77.30
56668;BME280;42542;48.360;10.958;2022-12-07T16:18:49;95894.03;;;3.14;77.62
56668;BME280;42542;48.360;10.958;2022-12-07T16:21:51;95890.94;;;3.09;78.25
56668;BME280;42542;48.360;10.958;2022-12-07T16:24:53;95894.03;;;3.03;78.79
56668;BME280;42542;48.360;10.958;2022-12-07T16:27:54;95882.19;;;2.97;79.21
56668;BME280;42542;48.360;10.958;2022-12-07T16:31:01;95882.56;;;2.93;78.92
56668;BME280;42542;48.360;10.958;2022-12-07T16:34:03;95890.03;;;2.88;78.96
56668;BME280;42542;48.360;10.958;2022-12-07T16:37:04;95880.53;;;2.85;79.14
56668;BME280;42542;48.360;10.958;2022-12-07T16:40:07;95881.72;;;2.81;80.15
56668;BME280;42542;48.360;10.958;2022-12-07T16:43:10;95878.63;;;2.76;80.11
56668;BME280;42542;48.360;10.958;2022-12-07T16:46:12;95889.56;;;2.71;79.97
56668;BME280;42542;48.360;10.958;2022-12-07T16:49:15;95882.00;;;2.67;80.17
56668;BME280;42542;48.360;10.958;2022-12-07T16:52:16;95877.34;;;2.59;81.00
56668;BME280;42542;48.360;10.958;2022-12-07T16:55:21;95879.38;;;2.56;80.82
56668;BME280;42542;48.360;10.958;2022-12-07T16:58:23;95876.28;;;2.51;80.62
56668;BME280;42542;48.360;10.958;2022-12-07T17:01:25;95877.56;;;2.45;81.25
56668;BME280;42542;48.360;10.958;2022-12-07T17:04:29;95871.84;;;2.40;81.42
56668;BME280;42542;48.360;10.958;2022-12-07T17:07:31;95867.88;;;2.34;81.19
56668;BME280;42542;48.360;10.958;2022-12-07T17:10:34;95874.59;;;2.27;81.82
56668;BME280;42542;48.360;10.958;2022-12-07T17:13:36;95873.16;;;2.23;82.32
56668;BME280;42542;48.360;10.958;2022-12-07T17:16:57;95870.28;;;2.15;82.56
56668;BME280;42542;48.360;10.958;2022-12-07T17:19:58;95867.28;;;2.09;82.43
56668;BME280;42542;48.360;10.958;2022-12-07T17:23:00;95868.94;;;1.99;82.59
56668;BME280;42542;48.360;10.958;2022-12-07T17:26:19;95867.75;;;1.91;82.34
56668;BME280;42542;48.360;10.958;2022-12-07T17:29:21;95857.06;;;1.82;82.83
56668;BME280;42542;48.360;10.958;2022-12-07T17:32:23;95860.91;;;1.78;82.70
56668;BME280;42542;48.360;10.958;2022-12-07T17:35:24;95849.25;;;1.69;82.68
56668;BME280;42542;48.360;10.958;2022-12-07T17:38:27;95855.00;;;1.63;82.69
56668;BME280;42542;48.360;10.958;2022-12-07T17:41:32;95860.00;;;1.55;83.42
56668;BME280;42542;48.360;10.958;2022-12-07T17:44:52;95855.78;;;1.41;83.21
56668;BME280;42542;48.360;10.958;2022-12-07T17:48:03;95856.00;;;1.38;83.55
56668;BME280;42542;48.360;10.958;2022-12-07T17:51:05;95856.56;;;1.31;83.89
56668;BME280;42542;48.360;10.958;2022-12-07T17:54:25;95859.06;;;1.21;84.53